createdAt,value
2023-03-01T00:01:16.790Z,26.17
2023-03-01T00:03:45.022Z,25.10
2023-03-01T00:06:13.008Z,22.83
2023-03-01T00:08:42.119Z,21.63
2023-03-01T00:11:14.219Z,25.10
2023-03-01T00:13:43.049Z,22.30
2023-03-01T00:16:13.814Z,26.37
2023-03-01T00:18:41.698Z,25.10
2023-03-01T00:21:09.187Z,22.60
2023-03-01T00:23:37.661Z,22.30
2023-03-01T00:26:10.086Z,21.80
2023-03-01T00:28:38.834Z,22.13
2023-03-01T00:31:07.374Z,23.30
2023-03-01T00:33:35.014Z,22.17
2023-03-01T00:36:03.353Z,20.63
2023-03-01T00:38:31.406Z,18.77
2023-03-01T00:41:05.307Z,20.60
2023-03-01T00:43:37.348Z,23.40
2023-03-01T00:46:06.150Z,23.07
2023-03-01T00:48:33.691Z,24.27
2023-03-01T00:51:07.192Z,20.63
2023-03-01T00:53:35.342Z,25.17
2023-03-01T00:56:03.089Z,20.77
2023-03-01T00:58:30.960Z,21.53
2023-03-01T01:00:59.868Z,20.77
2023-03-01T01:03:27.639Z,22.67
2023-03-01T01:05:55.720Z,21.00
2023-03-01T01:08:23.241Z,22.83
2023-03-01T01:10:50.776Z,21.67
2023-03-01T01:13:21.215Z,22.00
2023-03-01T01:15:48.751Z,20.47
2023-03-01T01:18:17.579Z,21.57
2023-03-01T01:20:45.051Z,21.03
2023-03-01T01:23:12.562Z,24.97
2023-03-01T01:25:40.169Z,19.30
2023-03-01T01:28:07.733Z,23.97
2023-03-01T01:30:35.196Z,19.97
2023-03-01T01:33:02.694Z,25.33
2023-03-01T01:35:31.508Z,25.90
2023-03-01T01:37:58.981Z,23.43
2023-03-01T01:40:26.475Z,23.73
2023-03-01T01:42:53.956Z,22.90
2023-03-01T01:45:34.590Z,22.57
2023-03-01T01:48:06.692Z,24.87
2023-03-01T01:50:39.608Z,24.67
2023-03-01T01:53:11.159Z,22.97
2023-03-01T01:55:43.633Z,25.00
2023-03-01T01:58:12.820Z,24.67
2023-03-01T02:00:40.966Z,22.20
2023-03-01T02:03:12.004Z,24.20
2023-03-01T02:05:51.574Z,21.33
2023-03-01T02:08:25.035Z,23.87
2023-03-01T02:10:54.081Z,24.13
2023-03-01T02:13:21.682Z,24.60
2023-03-01T02:15:49.329Z,24.93
2023-03-01T02:18:19.725Z,25.30
2023-03-01T02:20:59.503Z,22.67
2023-03-01T02:23:27.698Z,28.63
2023-03-01T02:26:01.837Z,23.53
2023-03-01T02:28:34.043Z,25.93
2023-03-01T02:31:20.369Z,27.30
2023-03-01T02:33:49.149Z,23.23
2023-03-01T02:36:21.395Z,26.77
2023-03-01T02:38:50.236Z,25.67
2023-03-01T02:41:21.094Z,23.40
2023-03-01T02:43:49.924Z,21.93
2023-03-01T02:46:20.063Z,23.67
2023-03-01T02:48:49.767Z,27.00
2023-03-01T02:51:31.020Z,24.77
2023-03-01T02:54:09.933Z,24.67
2023-03-01T02:56:37.868Z,20.50
2023-03-01T02:59:07.103Z,27.40
2023-03-01T03:01:38.337Z,29.10
2023-03-01T03:04:06.921Z,25.93
2023-03-01T03:06:34.598Z,25.73
2023-03-01T03:09:02.144Z,24.50
2023-03-01T03:11:30.431Z,25.20
2023-03-01T03:13:58.735Z,25.50
2023-03-01T03:16:28.034Z,27.20
2023-03-01T03:18:55.533Z,25.47
2023-03-01T03:21:23.016Z,26.23
2023-03-01T03:23:50.484Z,24.30
2023-03-01T03:26:17.978Z,26.07
2023-03-01T03:28:45.459Z,27.17
2023-03-01T03:31:13.018Z,25.43
2023-03-01T03:33:41.931Z,26.00
2023-03-01T03:36:13.893Z,27.57
2023-03-01T03:38:41.938Z,26.70
2023-03-01T03:41:10.295Z,26.77
2023-03-01T03:43:40.408Z,26.53
2023-03-01T03:46:08.909Z,27.33
2023-03-01T03:48:37.588Z,24.93
2023-03-01T03:51:07.273Z,25.80
2023-03-01T03:53:35.502Z,23.90
2023-03-01T03:56:03.099Z,24.93
2023-03-01T03:58:30.625Z,25.07
2023-03-01T04:00:59.128Z,25.33
2023-03-01T04:03:28.396Z,25.97
2023-03-01T04:05:56.102Z,26.93
2023-03-01T04:08:25.594Z,26.30
2023-03-01T04:10:54.697Z,24.20
2023-03-01T04:13:23.971Z,26.43
2023-03-01T04:15:52.490Z,26.10
2023-03-01T04:18:21.896Z,27.77
2023-03-01T04:20:49.563Z,28.07
2023-03-01T04:23:21.203Z,21.50
2023-03-01T04:25:55.482Z,26.33
2023-03-01T04:28:25.454Z,26.93
2023-03-01T04:30:53.886Z,27.77
2023-03-01T04:33:21.784Z,23.00
2023-03-01T04:35:50.345Z,23.37
2023-03-01T04:38:18.873Z,27.10
2023-03-01T04:40:46.577Z,21.87
2023-03-01T04:43:16.176Z,26.77
2023-03-01T04:45:43.743Z,24.20
2023-03-01T04:48:11.308Z,25.60
2023-03-01T04:50:38.785Z,23.20
2023-03-01T04:53:06.270Z,25.00
2023-03-01T04:55:33.736Z,26.90
2023-03-01T04:58:01.226Z,25.90
2023-03-01T05:00:30.074Z,26.07
2023-03-01T05:03:00.197Z,23.53
2023-03-01T05:05:29.396Z,21.50
2023-03-01T05:07:58.982Z,22.90
2023-03-01T05:10:29.934Z,25.83
2023-03-01T05:12:58.265Z,26.43
2023-03-01T05:15:26.790Z,26.23
2023-03-01T05:17:59.170Z,26.20
2023-03-01T05:20:27.513Z,25.70
2023-03-01T05:22:59.435Z,22.73
2023-03-01T05:25:27.046Z,21.63
2023-03-01T05:27:54.602Z,26.00
2023-03-01T05:30:22.496Z,24.57
2023-03-01T05:32:56.482Z,30.43
2023-03-01T05:35:25.703Z,25.20
2023-03-01T05:37:54.028Z,26.57
2023-03-01T05:40:24.092Z,26.87
2023-03-01T05:42:54.527Z,28.63
2023-03-01T05:45:23.674Z,28.73
2023-03-01T05:47:51.634Z,21.83
2023-03-01T05:50:21.496Z,26.63
2023-03-01T05:52:52.261Z,27.40
2023-03-01T05:55:21.316Z,23.70
2023-03-01T05:57:50.716Z,25.87
2023-03-01T06:00:20.832Z,28.23
2023-03-01T06:02:48.285Z,26.77
2023-03-01T06:05:16.554Z,27.17
2023-03-01T06:07:44.873Z,26.93
2023-03-01T06:10:14.859Z,29.30
2023-03-01T06:12:44.561Z,28.50
2023-03-01T06:15:13.305Z,31.87
2023-03-01T06:17:42.284Z,30.07
2023-03-01T06:20:13.070Z,36.70
2023-03-01T06:22:40.595Z,32.73
2023-03-01T06:25:09.479Z,30.57
2023-03-01T06:27:38.360Z,29.33
2023-03-01T06:30:07.177Z,30.53
2023-03-01T06:32:34.651Z,31.53
2023-03-01T06:35:02.137Z,29.53
2023-03-01T06:37:29.576Z,29.67
2023-03-01T06:39:57.259Z,29.00
2023-03-01T06:42:24.861Z,31.97
2023-03-01T06:44:53.642Z,34.13
2023-03-01T06:47:21.113Z,29.53
2023-03-01T06:49:48.600Z,33.47
2023-03-01T06:52:16.078Z,31.23
2023-03-01T06:54:43.719Z,26.37
2023-03-01T06:57:11.208Z,27.57
2023-03-01T06:59:38.722Z,30.20
2023-03-01T07:02:07.847Z,30.53
2023-03-01T07:04:35.332Z,21.40
2023-03-01T07:07:03.411Z,29.13
2023-03-01T07:09:30.934Z,32.37
2023-03-01T07:11:59.178Z,25.17
2023-03-01T07:14:27.022Z,25.10
2023-03-01T07:16:54.616Z,20.70
2023-03-01T07:19:23.952Z,26.40
2023-03-01T07:21:51.599Z,17.53
2023-03-01T07:24:19.037Z,23.27
2023-03-01T07:26:49.803Z,24.87
2023-03-01T07:29:17.324Z,21.47
2023-03-01T07:31:44.846Z,25.37
2023-03-01T07:34:12.615Z,18.40
2023-03-01T07:36:44.026Z,21.53
2023-03-01T07:39:11.912Z,20.17
2023-03-01T07:41:39.705Z,19.60
2023-03-01T07:44:07.439Z,16.93
2023-03-01T07:46:34.952Z,21.50
2023-03-01T07:49:02.428Z,18.57
2023-03-01T07:51:29.877Z,11.60
2023-03-01T07:53:58.688Z,24.43
2023-03-01T07:56:26.200Z,18.27
2023-03-01T07:58:53.724Z,18.77
2023-03-01T08:01:23.032Z,23.93
2023-03-01T08:03:50.729Z,22.93
2023-03-01T08:06:19.334Z,17.53
2023-03-01T08:08:47.382Z,15.07
2023-03-01T08:11:17.264Z,19.83
2023-03-01T08:13:45.223Z,21.67
2023-03-01T08:16:15.390Z,18.33
2023-03-01T08:18:43.347Z,21.80
2023-03-01T08:21:13.252Z,19.20
2023-03-01T08:23:41.729Z,20.20
2023-03-01T08:26:11.076Z,22.53
2023-03-01T08:28:40.362Z,22.23
2023-03-01T08:31:15.831Z,18.70
2023-03-01T08:33:43.462Z,21.73
2023-03-01T08:36:11.087Z,16.27
2023-03-01T08:38:38.579Z,17.70
2023-03-01T08:41:06.415Z,13.93
2023-03-01T08:43:33.900Z,16.90
2023-03-01T08:46:02.832Z,26.37
2023-03-01T08:48:30.430Z,19.77
2023-03-01T08:50:57.960Z,17.20
2023-03-01T08:53:25.476Z,21.40
2023-03-01T08:55:52.961Z,20.53
2023-03-01T08:58:20.456Z,23.30
2023-03-01T09:00:47.966Z,31.73
2023-03-01T09:03:16.772Z,20.77
2023-03-01T09:05:46.837Z,16.80
2023-03-01T09:08:14.442Z,18.23
2023-03-01T09:10:42.050Z,22.67
2023-03-01T09:13:09.709Z,21.53
2023-03-01T09:15:38.678Z,22.10
2023-03-01T09:18:07.080Z,19.40
2023-03-01T09:20:35.917Z,23.07
2023-03-01T09:23:03.485Z,19.53
2023-03-01T09:25:30.988Z,20.80
2023-03-01T09:27:58.526Z,18.67
2023-03-01T09:30:26.175Z,17.77
2023-03-01T09:32:53.854Z,18.67
2023-03-01T09:35:23.536Z,19.30
2023-03-01T09:37:53.293Z,20.93
2023-03-01T09:40:23.620Z,19.20
2023-03-01T09:42:57.591Z,19.23
2023-03-01T09:45:34.992Z,18.63
2023-03-01T09:48:03.788Z,17.40
2023-03-01T09:50:37.759Z,23.03
2023-03-01T09:53:12.127Z,19.37
2023-03-01T09:55:45.110Z,19.83
2023-03-01T09:58:31.811Z,19.60
2023-03-01T10:01:04.655Z,14.30
2023-03-01T10:03:38.948Z,18.83
2023-03-01T10:06:23.931Z,20.00
2023-03-01T10:09:07.423Z,19.27
2023-03-01T10:11:38.999Z,19.63
2023-03-01T10:14:16.595Z,14.83
2023-03-01T10:16:52.304Z,14.67
2023-03-01T10:19:27.562Z,18.13
2023-03-01T10:21:55.324Z,14.90
2023-03-01T10:24:24.256Z,19.80
2023-03-01T10:26:57.494Z,14.17
2023-03-01T10:29:31.757Z,13.80
2023-03-01T10:31:59.651Z,16.23
2023-03-01T10:34:31.861Z,19.90
2023-03-01T10:37:10.346Z,13.40
2023-03-01T10:39:55.631Z,14.00
2023-03-01T10:42:29.158Z,13.60
2023-03-01T10:44:56.720Z,14.30
2023-03-01T10:47:26.539Z,12.87
2023-03-01T10:49:57.603Z,13.37
2023-03-01T10:52:29.522Z,11.70
2023-03-01T10:55:01.285Z,11.53
2023-03-01T10:57:42.879Z,12.37
2023-03-01T11:00:26.563Z,12.70
2023-03-01T11:03:12.271Z,16.10
2023-03-01T11:05:53.260Z,11.07
2023-03-01T11:08:34.908Z,13.63
2023-03-01T11:11:15.044Z,13.07
2023-03-01T11:13:53.078Z,15.70
2023-03-01T11:16:27.105Z,26.07
2023-03-01T11:19:17.115Z,17.50
2023-03-01T11:21:54.037Z,14.57
2023-03-01T11:24:24.400Z,14.10
2023-03-01T11:26:56.457Z,17.85
2023-03-01T11:29:39.921Z,14.85
2023-03-01T11:32:15.294Z,16.60
2023-03-01T11:34:47.345Z,18.35
2023-03-01T11:37:25.819Z,12.45
2023-03-01T11:40:00.776Z,10.32
2023-03-01T11:42:42.448Z,16.17
2023-03-01T11:45:14.012Z,12.32
2023-03-01T11:48:08.717Z,15.80
2023-03-01T11:50:43.876Z,9.77
2023-03-01T11:53:34.397Z,16.52
2023-03-01T11:56:11.979Z,11.43
2023-03-01T11:58:56.018Z,14.43
2023-03-01T12:01:35.281Z,13.13
2023-03-01T12:04:38.637Z,13.50
2023-03-01T12:07:14.608Z,10.57
2023-03-01T12:09:56.945Z,14.15
2023-03-01T12:12:37.311Z,14.10
2023-03-01T12:15:45.340Z,15.90
2023-03-01T12:18:31.539Z,13.67
2023-03-01T12:21:07.227Z,14.35
2023-03-01T12:23:56.290Z,11.90
2023-03-01T12:26:31.817Z,9.95
2023-03-01T12:29:17.453Z,16.63
2023-03-01T12:32:08.044Z,17.27
2023-03-01T12:34:57.357Z,11.73
2023-03-01T12:37:35.154Z,15.50
2023-03-01T12:40:24.041Z,12.30
2023-03-01T12:43:05.786Z,12.23
2023-03-01T12:45:46.474Z,11.80
2023-03-01T12:48:30.255Z,14.43
2023-03-01T12:51:02.961Z,9.52
2023-03-01T12:53:33.250Z,10.55
2023-03-01T12:56:04.358Z,14.50
2023-03-01T12:58:48.782Z,20.13
2023-03-01T13:01:35.034Z,14.35
2023-03-01T13:04:16.535Z,14.35
2023-03-01T13:06:50.180Z,14.63
2023-03-01T13:09:24.502Z,15.25
2023-03-01T13:11:52.028Z,14.30
2023-03-01T13:14:48.141Z,11.70
2023-03-01T13:17:42.749Z,11.43
2023-03-01T13:20:17.999Z,11.80
2023-03-01T13:22:54.756Z,11.82
2023-03-01T13:25:27.612Z,11.25
2023-03-01T13:28:38.739Z,15.52
2023-03-01T13:31:07.864Z,13.75
2023-03-01T13:33:42.934Z,13.55
2023-03-01T13:36:14.313Z,11.52
2023-03-01T13:38:48.763Z,14.57
2023-03-01T13:41:17.188Z,13.67
2023-03-01T13:43:46.245Z,18.43
2023-03-01T13:46:20.722Z,13.90
2023-03-01T13:48:53.008Z,14.87
2023-03-01T13:51:27.160Z,19.50
2023-03-01T13:53:57.516Z,16.03
2023-03-01T13:56:27.796Z,16.85
2023-03-01T13:59:00.238Z,18.65
2023-03-01T14:01:31.184Z,16.63
2023-03-01T14:04:00.090Z,17.40
2023-03-01T14:06:32.224Z,21.73
2023-03-01T14:09:06.833Z,18.03
2023-03-01T14:11:55.188Z,18.75
2023-03-01T14:14:54.107Z,17.13
2023-03-01T14:17:36.696Z,21.23
2023-03-01T14:20:11.178Z,17.92
2023-03-01T14:22:44.389Z,17.33
2023-03-01T14:25:26.742Z,21.63
2023-03-01T14:27:59.324Z,18.80
2023-03-01T14:30:29.610Z,18.10
2023-03-01T14:32:58.614Z,17.08
2023-03-01T14:35:27.853Z,13.57
2023-03-01T14:37:56.696Z,18.03
2023-03-01T14:40:27.402Z,14.35
2023-03-01T14:42:57.040Z,16.50
2023-03-01T14:45:27.048Z,19.27
2023-03-01T14:47:55.961Z,17.40
2023-03-01T14:50:28.177Z,18.70
2023-03-01T14:53:00.129Z,16.10
2023-03-01T14:55:30.797Z,16.33
2023-03-01T14:58:00.151Z,18.97
2023-03-01T15:00:30.831Z,13.57
2023-03-01T15:03:10.725Z,20.60
2023-03-01T15:05:39.320Z,16.30
2023-03-01T15:08:09.274Z,14.10
2023-03-01T15:10:40.601Z,16.50
2023-03-01T15:13:14.593Z,16.03
2023-03-01T15:15:44.541Z,18.43
2023-03-01T15:18:19.465Z,12.57
2023-03-01T15:20:48.136Z,15.33
2023-03-01T15:23:24.617Z,17.57
2023-03-01T15:25:57.582Z,15.20
2023-03-01T15:28:27.532Z,15.00
2023-03-01T15:30:58.671Z,16.37
2023-03-01T15:33:32.610Z,15.57
2023-03-01T15:36:01.736Z,11.27
2023-03-01T15:38:34.415Z,13.50
2023-03-01T15:41:05.003Z,19.27
2023-03-01T15:43:41.564Z,17.03
2023-03-01T15:46:19.242Z,13.03
2023-03-01T15:48:50.235Z,12.40
2023-03-01T15:51:18.376Z,14.87
2023-03-01T15:53:54.756Z,16.03
2023-03-01T15:56:22.523Z,15.43
2023-03-01T15:58:50.032Z,15.03
2023-03-01T16:01:18.997Z,14.47
2023-03-01T16:03:46.873Z,15.80
2023-03-01T16:06:14.720Z,22.97
2023-03-01T16:08:42.989Z,13.83
2023-03-01T16:11:17.668Z,15.53
2023-03-01T16:13:45.573Z,12.47
2023-03-01T16:16:17.120Z,16.87
2023-03-01T16:18:46.302Z,16.80
2023-03-01T16:21:17.230Z,16.53
2023-03-01T16:23:46.943Z,28.40
2023-03-01T16:26:16.094Z,20.77
2023-03-01T16:28:44.454Z,13.87
2023-03-01T16:31:12.176Z,16.17
2023-03-01T16:33:40.383Z,13.60
2023-03-01T16:36:09.634Z,17.53
2023-03-01T16:38:37.226Z,14.87
2023-03-01T16:41:05.039Z,13.93
2023-03-01T16:43:34.012Z,14.77
2023-03-01T16:46:01.569Z,17.93
2023-03-01T16:48:29.100Z,21.27
2023-03-01T16:51:00.908Z,19.33
2023-03-01T16:53:29.321Z,17.57
2023-03-01T16:55:57.804Z,14.90
2023-03-01T16:58:26.172Z,16.47
2023-03-01T17:00:55.749Z,15.23
2023-03-01T17:03:23.663Z,17.80
2023-03-01T17:05:51.433Z,21.90
2023-03-01T17:08:19.190Z,17.53
2023-03-01T17:10:46.745Z,15.20
2023-03-01T17:13:14.267Z,19.33
2023-03-01T17:15:42.253Z,21.67
2023-03-01T17:18:11.356Z,14.53
2023-03-01T17:20:38.949Z,18.67
2023-03-01T17:23:06.556Z,19.30
2023-03-01T17:25:34.134Z,18.40
2023-03-01T17:28:01.814Z,18.50
2023-03-01T17:30:29.491Z,17.43
2023-03-01T17:32:57.001Z,19.10
2023-03-01T17:35:27.075Z,20.43
2023-03-01T17:37:54.576Z,16.87
2023-03-01T17:40:22.107Z,20.70
2023-03-01T17:42:49.599Z,22.60
2023-03-01T17:45:17.315Z,25.73
2023-03-01T17:47:44.809Z,23.87
2023-03-01T17:50:13.317Z,23.33
2023-03-01T17:52:42.539Z,13.93
2023-03-01T17:55:10.837Z,18.80
2023-03-01T17:57:40.618Z,26.17
2023-03-01T18:00:10.923Z,17.10
2023-03-01T18:02:38.566Z,19.17
2023-03-01T18:05:06.746Z,19.63
2023-03-01T18:07:34.543Z,19.43
2023-03-01T18:10:03.505Z,22.47
2023-03-01T18:12:32.619Z,19.97
2023-03-01T18:15:00.243Z,24.83
2023-03-01T18:17:28.399Z,20.00
2023-03-01T18:19:56.777Z,17.37
2023-03-01T18:22:24.388Z,20.80
2023-03-01T18:24:51.895Z,19.73
2023-03-01T18:27:20.705Z,16.83
2023-03-01T18:29:48.186Z,18.10
2023-03-01T18:32:15.786Z,21.43
2023-03-01T18:34:43.284Z,17.70
2023-03-01T18:37:10.793Z,17.60
2023-03-01T18:39:38.588Z,17.43
2023-03-01T18:42:06.437Z,16.37
2023-03-01T18:44:35.554Z,16.00
2023-03-01T18:47:03.043Z,20.77
2023-03-01T18:49:30.758Z,19.63
2023-03-01T18:51:58.447Z,20.33
2023-03-01T18:54:26.168Z,23.23
2023-03-01T18:56:53.666Z,18.73
2023-03-01T18:59:21.157Z,21.20
2023-03-01T19:01:50.069Z,15.43
2023-03-01T19:04:17.597Z,24.90
2023-03-01T19:06:45.140Z,18.40
2023-03-01T19:09:12.737Z,28.87
2023-03-01T19:11:40.603Z,22.90
2023-03-01T19:14:08.436Z,26.57
2023-03-01T19:16:36.086Z,31.53
2023-03-01T19:19:08.362Z,29.90
2023-03-01T19:21:36.044Z,36.07
2023-03-01T19:24:04.376Z,38.13
2023-03-01T19:26:33.094Z,41.17
2023-03-01T19:29:02.891Z,44.47
2023-03-01T19:31:31.543Z,51.60
2023-03-01T19:34:11.541Z,46.10
2023-03-01T19:36:42.448Z,39.00
2023-03-01T19:39:11.194Z,40.53
2023-03-01T19:41:38.694Z,41.50
2023-03-01T19:44:06.354Z,48.23
2023-03-01T19:46:35.154Z,44.77
2023-03-01T19:49:03.454Z,44.73
2023-03-01T19:51:33.232Z,43.27
2023-03-01T19:54:02.127Z,31.10
2023-03-01T19:56:29.942Z,43.90
2023-03-01T19:59:00.474Z,39.10
2023-03-01T20:01:29.703Z,41.20
2023-03-01T20:03:57.460Z,28.30
2023-03-01T20:06:25.724Z,25.80
2023-03-01T20:08:53.613Z,24.73
2023-03-01T20:11:23.010Z,19.70
2023-03-01T20:13:50.536Z,20.23
2023-03-01T20:16:20.200Z,20.00
2023-03-01T20:18:47.742Z,18.87
2023-03-01T20:21:23.906Z,17.00
2023-03-01T20:23:52.980Z,13.90
2023-03-01T20:26:25.361Z,13.10
2023-03-01T20:28:54.613Z,20.53
2023-03-01T20:31:28.778Z,16.93
2023-03-01T20:33:58.146Z,26.47
2023-03-01T20:36:26.123Z,15.80
2023-03-01T20:38:54.190Z,12.97
2023-03-01T20:41:25.839Z,14.87
2023-03-01T20:43:56.725Z,17.57
2023-03-01T20:46:26.589Z,19.10
2023-03-01T20:48:54.595Z,22.30
2023-03-01T20:51:22.305Z,14.53
2023-03-01T20:53:50.240Z,19.33
2023-03-01T20:56:19.643Z,17.87
2023-03-01T20:58:48.784Z,16.77
2023-03-01T21:01:18.193Z,22.10
2023-03-01T21:03:45.925Z,20.67
2023-03-01T21:06:13.771Z,12.70
2023-03-01T21:08:41.335Z,14.03
2023-03-01T21:11:09.006Z,17.47
2023-03-01T21:13:37.173Z,19.10
2023-03-01T21:16:10.094Z,10.93
2023-03-01T21:18:38.053Z,14.17
2023-03-01T21:21:07.749Z,17.77
2023-03-01T21:23:37.114Z,18.33
2023-03-01T21:26:06.946Z,22.17
2023-03-01T21:28:35.699Z,15.37
2023-03-01T21:31:09.499Z,19.17
2023-03-01T21:33:37.681Z,19.13
2023-03-01T21:36:07.309Z,11.63
2023-03-01T21:38:37.868Z,20.10
2023-03-01T21:41:07.418Z,22.60
2023-03-01T21:43:35.914Z,16.97
2023-03-01T21:46:04.417Z,18.97
2023-03-01T21:48:33.869Z,19.03
2023-03-01T21:51:02.778Z,21.73
2023-03-01T21:53:32.975Z,14.13
2023-03-01T21:56:00.900Z,17.37
2023-03-01T21:58:31.438Z,20.50
2023-03-01T22:00:59.722Z,20.77
2023-03-01T22:03:27.398Z,17.27
2023-03-01T22:05:58.070Z,16.73
2023-03-01T22:08:25.760Z,17.13
2023-03-01T22:10:53.332Z,21.43
2023-03-01T22:13:21.186Z,18.87
2023-03-01T22:15:48.680Z,18.30
2023-03-01T22:18:16.202Z,19.50
2023-03-01T22:20:43.681Z,23.63
2023-03-01T22:23:12.488Z,19.10
2023-03-01T22:25:43.428Z,17.00
2023-03-01T22:28:10.961Z,27.50
2023-03-01T22:30:38.475Z,24.77
2023-03-01T22:33:05.984Z,22.40
2023-03-01T22:35:33.504Z,17.13
2023-03-01T22:38:01.057Z,22.43
2023-03-01T22:40:29.948Z,17.77
2023-03-01T22:42:57.686Z,19.67
2023-03-01T22:45:25.254Z,17.33
2023-03-01T22:47:52.754Z,17.00
2023-03-01T22:50:20.439Z,18.27
2023-03-01T22:52:47.949Z,18.87
2023-03-01T22:55:15.469Z,21.60
2023-03-01T22:57:44.351Z,20.23
2023-03-01T23:00:13.227Z,24.60
2023-03-01T23:02:41.598Z,23.97
2023-03-01T23:05:09.584Z,19.40
2023-03-01T23:07:37.814Z,20.20
2023-03-01T23:10:07.100Z,16.57
2023-03-01T23:12:34.583Z,23.70
2023-03-01T23:15:03.565Z,17.97
2023-03-01T23:17:31.021Z,20.00
2023-03-01T23:19:58.533Z,19.73
2023-03-01T23:22:26.110Z,20.17
2023-03-01T23:24:53.811Z,19.20
2023-03-01T23:27:21.293Z,23.50
2023-03-01T23:29:48.797Z,16.10
2023-03-01T23:32:17.630Z,17.97
2023-03-01T23:34:45.363Z,26.30
2023-03-01T23:37:12.811Z,24.60
2023-03-01T23:39:40.484Z,16.93
2023-03-01T23:42:08.319Z,17.20
2023-03-01T23:44:38.793Z,17.67
2023-03-01T23:47:06.294Z,14.97
2023-03-01T23:49:35.127Z,22.03
2023-03-01T23:52:02.617Z,17.50
2023-03-01T23:54:30.150Z,19.70
2023-03-01T23:56:57.603Z,18.47
2023-03-01T23:59:25.775Z,20.90
